Time;durP1;ratioP1;P1;durP2;ratioP2;P2;SDS_P1;SDS_P2;PMS_P1;PMS_P2;Temp;Humidity;BMP_temperature;BMP_pressure;BME280_temperature;BME280_humidity;BME280_pressure;Samples;Min_cycle;Max_cycle;Signal;HPM_P1;HPM_P2
2022/05/03 00:00:02;;;;;;;;;;;5.60;99.90;;;;;;5079799;28;20324;-72
2022/05/03 00:02:31;;;;;;;;;;;5.50;99.90;;;;;;5078505;28;20469;-73
2022/05/03 00:05:02;;;;;;;;;;;5.40;99.90;;;;;;5080955;28;19920;-73
2022/05/03 00:07:30;;;;;;;;;;;5.40;99.90;;;;;;5091062;28;19924;-73
2022/05/03 00:10:00;;;;;;;;;;;5.40;99.90;;;;;;5055761;28;19924;-72
2022/05/03 00:12:28;;;;;;;;;;;5.50;99.90;;;;;;5073076;28;19974;-72
2022/05/03 00:14:54;;;;;;;;;;;5.40;99.90;;;;;;5065710;28;19928;-72
2022/05/03 00:17:22;;;;;;;;;;;5.40;99.90;;;;;;5092706;28;19924;-73
2022/05/03 00:19:48;;;;;;;;;;;5.40;99.90;;;;;;5066015;28;19921;-73
2022/05/03 00:22:15;;;;;;;;;;;5.30;99.90;;;;;;5077888;28;19932;-73
2022/05/03 00:24:41;;;;;;;;;;;5.30;99.90;;;;;;5065463;28;20160;-73
2022/05/03 00:27:06;;;;;;;;;;;5.20;99.90;;;;;;5098049;28;19920;-73
2022/05/03 00:29:33;;;;;;;;;;;5.20;99.90;;;;;;5080605;28;19935;-73
2022/05/03 00:31:59;;;;;;;;;;;5.20;99.90;;;;;;5082708;28;19924;-73
2022/05/03 00:34:26;;;;;;;;;;;5.20;99.90;;;;;;5055582;28;19942;-71
2022/05/03 00:36:51;;;;;;;;;;;5.20;99.90;;;;;;5098268;28;19964;-73
2022/05/03 00:39:18;;;;;;;;;;;5.10;99.90;;;;;;5070233;28;19920;-72
2022/05/03 00:41:45;;;;;;;;;;;5.10;99.90;;;;;;5115423;28;19982;-73
2022/05/03 00:47:03;;;;;;;;;;;5.10;99.90;;;;;;5096796;28;19920;-73
2022/05/03 00:49:31;;;;;;;;;;;5.10;99.90;;;;;;5070537;28;20352;-73
2022/05/03 00:52:01;;;;;;;;;;;5.10;99.90;;;;;;5081935;28;20305;-73
2022/05/03 00:54:32;;;;;;;;;;;5.00;99.90;;;;;;5081707;28;20441;-73
2022/05/03 00:57:06;;;;;;;;;;;5.00;99.90;;;;;;5080704;28;19931;-72
2022/05/03 00:59:40;;;;;;;;;;;5.00;99.90;;;;;;5075739;28;20137;-73
2022/05/03 01:02:07;;;;;;;;;;;5.00;99.90;;;;;;5069477;28;19927;-71
2022/05/03 01:04:36;;;;;;;;;;;4.90;99.90;;;;;;5079807;28;19920;-73
2022/05/03 01:07:08;;;;;;;;;;;4.90;99.90;;;;;;5081385;28;20322;-73
2022/05/03 01:09:38;;;;;;;;;;;4.90;99.90;;;;;;5086374;28;19920;-72
2022/05/03 01:12:09;;;;;;;;;;;4.90;99.90;;;;;;5064179;28;19964;-73
2022/05/03 01:14:39;;;;;;;;;;;4.80;99.90;;;;;;5068268;28;20285;-72
2022/05/03 01:17:08;;;;;;;;;;;4.80;99.90;;;;;;5097019;28;19920;-72
2022/05/03 01:19:42;;;;;;;;;;;4.70;99.90;;;;;;5063495;28;19935;-71
2022/05/03 01:22:08;;;;;;;;;;;4.70;99.90;;;;;;5096335;28;19988;-72
2022/05/03 01:24:51;;;;;;;;;;;4.60;99.90;;;;;;5074339;28;19920;-73
2022/05/03 01:27:32;;;;;;;;;;;4.60;99.90;;;;;;5089883;28;19931;-73
2022/05/03 01:30:01;;;;;;;;;;;4.60;99.90;;;;;;5093877;28;19931;-73
2022/05/03 01:32:27;;;;;;;;;;;4.60;99.90;;;;;;5098330;28;19931;-73
2022/05/03 01:34:52;;;;;;;;;;;4.60;99.90;;;;;;5079693;28;19920;-72
2022/05/03 01:37:30;;;;;;;;;;;4.50;99.90;;;;;;5110290;28;19952;-73
2022/05/03 01:40:04;;;;;;;;;;;4.40;99.90;;;;;;5097740;28;19920;-73
2022/05/03 01:42:35;;;;;;;;;;;4.40;99.90;;;;;;5098316;28;19946;-73
2022/05/03 01:45:05;;;;;;;;;;;4.40;99.90;;;;;;5098113;28;19921;-71
2022/05/03 01:47:35;;;;;;;;;;;4.40;99.90;;;;;;5068843;28;19924;-73
2022/05/03 01:50:18;;;;;;;;;;;4.30;99.90;;;;;;5095942;28;19924;-73
2022/05/03 01:52:49;;;;;;;;;;;4.40;99.90;;;;;;5073986;28;20011;-72
2022/05/03 01:55:30;;;;;;;;;;;4.30;99.90;;;;;;5072249;28;19920;-72
2022/05/03 01:58:01;;;;;;;;;;;4.30;99.90;;;;;;5063996;28;19927;-73
2022/05/03 02:00:33;;;;;;;;;;;4.30;99.90;;;;;;5083880;28;19998;-73
2022/05/03 02:03:02;;;;;;;;;;;4.30;99.90;;;;;;5087959;28;20417;-73
2022/05/03 02:05:37;;;;;;;;;;;4.20;99.90;;;;;;5077657;28;19932;-73
2022/05/03 02:08:04;;;;;;;;;;;4.20;99.90;;;;;;5097801;28;19920;-72
2022/05/03 02:10:41;;;;;;;;;;;4.20;99.90;;;;;;5097778;28;19924;-70
2022/05/03 02:13:16;;;;;;;;;;;4.20;99.90;;;;;;5081713;28;20288;-73
2022/05/03 02:15:44;;;;;;;;;;;4.20;99.90;;;;;;5096351;28;19920;-72
2022/05/03 02:18:13;;;;;;;;;;;4.20;99.90;;;;;;5088609;28;19981;-72
2022/05/03 02:20:44;;;;;;;;;;;4.20;99.90;;;;;;5088922;28;19978;-72
2022/05/03 02:23:17;;;;;;;;;;;4.20;99.90;;;;;;5080933;28;19920;-73
2022/05/03 02:25:49;;;;;;;;;;;4.20;99.90;;;;;;5096832;28;19924;-72
2022/05/03 02:28:17;;;;;;;;;;;4.20;99.90;;;;;;5072307;28;19974;-73
2022/05/03 02:30:45;;;;;;;;;;;4.20;99.90;;;;;;5093723;28;20452;-73
2022/05/03 02:33:17;;;;;;;;;;;4.10;99.90;;;;;;5073503;28;19924;-73
2022/05/03 02:35:48;;;;;;;;;;;4.10;99.90;;;;;;5092419;28;20363;-72
2022/05/03 02:38:17;;;;;;;;;;;4.10;99.90;;;;;;5097051;28;20240;-73
2022/05/03 02:40:45;;;;;;;;;;;4.00;99.90;;;;;;5042799;23;19943;-76
2022/05/03 02:43:12;;;;;;;;;;;4.00;99.90;;;;;;5066831;28;20007;-76
2022/05/03 02:45:41;;;;;;;;;;;4.00;99.90;;;;;;5033085;28;20499;-76
2022/05/03 02:48:14;;;;;;;;;;;4.00;99.90;;;;;;5049844;28;20019;-77
2022/05/03 02:50:43;;;;;;;;;;;4.00;99.90;;;;;;5066501;28;20979;-76
2022/05/03 02:53:14;;;;;;;;;;;3.90;99.90;;;;;;5057632;28;20333;-77
2022/05/03 02:55:47;;;;;;;;;;;3.80;99.90;;;;;;5033435;28;20417;-76
2022/05/03 02:58:17;;;;;;;;;;;3.80;99.90;;;;;;5026316;28;20004;-76
2022/05/03 03:03:44;;;;;;;;;;;3.80;99.90;;;;;;5048523;28;19921;-76
2022/05/03 03:06:12;;;;;;;;;;;3.80;99.90;;;;;;5048918;28;19925;-76
2022/05/03 03:08:43;;;;;;;;;;;3.80;99.90;;;;;;5048251;28;19971;-76
2022/05/03 03:11:12;;;;;;;;;;;3.80;99.90;;;;;;5049339;28;19971;-75
2022/05/03 03:13:45;;;;;;;;;;;3.80;99.90;;;;;;5040315;28;19921;-76
2022/05/03 03:16:12;;;;;;;;;;;3.80;99.90;;;;;;5049268;28;19929;-76
2022/05/03 03:18:40;;;;;;;;;;;3.70;99.90;;;;;;5032266;28;19966;-76
2022/05/03 03:21:08;;;;;;;;;;;3.70;99.90;;;;;;5048936;28;19925;-76
2022/05/03 03:23:35;;;;;;;;;;;3.70;99.90;;;;;;5049133;28;19928;-77
2022/05/03 03:26:01;;;;;;;;;;;3.60;99.90;;;;;;5048645;28;19920;-76
2022/05/03 03:28:28;;;;;;;;;;;3.60;99.90;;;;;;5063414;28;20003;-76
2022/05/03 03:30:55;;;;;;;;;;;3.60;99.90;;;;;;5036654;28;20085;-76
2022/05/03 03:33:21;;;;;;;;;;;3.60;99.90;;;;;;5052068;28;19921;-76
2022/05/03 03:35:49;;;;;;;;;;;3.60;99.90;;;;;;5044554;28;19920;-76
2022/05/03 03:38:15;;;;;;;;;;;3.60;99.90;;;;;;5044862;28;19929;-76
2022/05/03 03:40:45;;;;;;;;;;;3.60;99.90;;;;;;5038510;28;20299;-76
2022/05/03 03:43:11;;;;;;;;;;;3.60;99.90;;;;;;5052974;28;19921;-76
2022/05/03 03:45:37;;;;;;;;;;;3.60;99.90;;;;;;5035885;28;19921;-76
2022/05/03 03:48:04;;;;;;;;;;;3.60;99.90;;;;;;5053114;28;19920;-76
2022/05/03 03:50:30;;;;;;;;;;;3.60;99.90;;;;;;5052345;28;20035;-76
2022/05/03 03:52:57;;;;;;;;;;;3.60;99.90;;;;;;5042890;28;19921;-75
2022/05/03 03:55:24;;;;;;;;;;;3.60;99.90;;;;;;5052458;28;19929;-75
2022/05/03 03:57:50;;;;;;;;;;;3.60;99.90;;;;;;5050863;28;19921;-76
2022/05/03 04:00:16;;;;;;;;;;;3.60;99.90;;;;;;5036487;28;20303;-76
2022/05/03 04:02:43;;;;;;;;;;;3.60;99.90;;;;;;5068990;28;19921;-76
2022/05/03 04:05:13;;;;;;;;;;;3.60;99.90;;;;;;5050317;28;19932;-76
2022/05/03 04:07:39;;;;;;;;;;;3.60;99.90;;;;;;5048854;28;19940;-76
2022/05/03 04:10:06;;;;;;;;;;;3.60;99.90;;;;;;5051890;28;19925;-76
2022/05/03 04:12:32;;;;;;;;;;;3.60;99.90;;;;;;5042547;28;19925;-75
2022/05/03 04:14:58;;;;;;;;;;;3.60;99.90;;;;;;5051112;28;20428;-76
2022/05/03 04:17:23;;;;;;;;;;;3.70;99.90;;;;;;5036994;28;19964;-76
2022/05/03 04:19:49;;;;;;;;;;;3.80;99.90;;;;;;5051669;28;20003;-76
2022/05/03 04:22:24;;;;;;;;;;;3.80;99.90;;;;;;5052693;28;19925;-76
2022/05/03 04:24:50;;;;;;;;;;;3.90;99.90;;;;;;5051712;28;19935;-76
2022/05/03 04:27:17;;;;;;;;;;;4.00;99.90;;;;;;5051767;28;20004;-76
2022/05/03 04:29:43;;;;;;;;;;;4.00;99.90;;;;;;5050437;28;19925;-76
2022/05/03 04:32:08;;;;;;;;;;;4.00;99.90;;;;;;5052496;28;20451;-76
2022/05/03 04:34:34;;;;;;;;;;;4.00;99.90;;;;;;5035289;28;20306;-77
2022/05/03 04:36:59;;;;;;;;;;;4.00;99.90;;;;;;5059980;28;19921;-76
2022/05/03 04:39:25;;;;;;;;;;;4.00;99.90;;;;;;5042138;28;20020;-76
2022/05/03 04:41:50;;;;;;;;;;;4.10;99.90;;;;;;5068891;28;19924;-76
2022/05/03 04:44:17;;;;;;;;;;;4.20;99.90;;;;;;5051455;28;19921;-76
2022/05/03 04:46:43;;;;;;;;;;;4.30;99.90;;;;;;5050721;28;19932;-76
2022/05/03 04:49:08;;;;;;;;;;;4.40;99.90;;;;;;5049236;28;19928;-76
2022/05/03 04:51:34;;;;;;;;;;;4.50;99.90;;;;;;5068822;28;19936;-76
2022/05/03 04:53:59;;;;;;;;;;;4.70;99.90;;;;;;5034434;28;19974;-76
2022/05/03 04:56:25;;;;;;;;;;;4.80;99.90;;;;;;5051088;28;19921;-76
2022/05/03 04:58:55;;;;;;;;;;;4.90;99.90;;;;;;5051008;28;19928;-76
2022/05/03 05:01:22;;;;;;;;;;;5.00;99.90;;;;;;5043187;28;19951;-77
2022/05/03 05:03:48;;;;;;;;;;;5.10;99.90;;;;;;5049152;28;19925;-76
2022/05/03 05:06:14;;;;;;;;;;;5.10;99.90;;;;;;5053486;28;19979;-76
2022/05/03 05:08:40;;;;;;;;;;;5.10;99.90;;;;;;5044125;28;19920;-76
2022/05/03 05:11:06;;;;;;;;;;;5.20;99.90;;;;;;5045620;28;20404;-75
2022/05/03 05:13:32;;;;;;;;;;;5.30;99.90;;;;;;5047440;28;20003;-76
2022/05/03 05:15:58;;;;;;;;;;;5.40;99.90;;;;;;5049390;28;19921;-76
2022/05/03 05:18:25;;;;;;;;;;;5.40;99.90;;;;;;5043848;28;19921;-77
2022/05/03 05:20:50;;;;;;;;;;;5.50;99.90;;;;;;5047731;28;19931;-76
2022/05/03 05:23:16;;;;;;;;;;;5.60;99.90;;;;;;5044495;28;19921;-76
2022/05/03 05:25:41;;;;;;;;;;;5.70;99.90;;;;;;5058348;28;19920;-76
2022/05/03 05:28:07;;;;;;;;;;;5.80;99.90;;;;;;5046426;28;19921;-77
2022/05/03 05:30:33;;;;;;;;;;;6.00;99.90;;;;;;5045612;28;20565;-76
2022/05/03 05:32:58;;;;;;;;;;;6.20;99.90;;;;;;5045510;28;19920;-76
2022/05/03 05:35:25;;;;;;;;;;;6.30;99.90;;;;;;5045505;28;20438;-76
2022/05/03 05:37:51;;;;;;;;;;;6.50;99.90;;;;;;5027455;28;20353;-79
2022/05/03 05:40:16;;;;;;;;;;;6.60;99.90;;;;;;5030151;28;19928;-77
2022/05/03 05:42:42;;;;;;;;;;;6.80;99.90;;;;;;5027510;28;20013;-76
2022/05/03 05:45:08;;;;;;;;;;;6.90;99.90;;;;;;5042893;28;19927;-77
2022/05/03 05:47:33;;;;;;;;;;;7.10;99.90;;;;;;5045486;28;20497;-76
2022/05/03 05:49:59;;;;;;;;;;;7.20;99.90;;;;;;5043470;28;20521;-77
2022/05/03 05:55:10;;;;;;;;;;;7.50;99.90;;;;;;5043626;28;19933;-76
2022/05/03 05:57:36;;;;;;;;;;;7.60;99.90;;;;;;5045657;28;20042;-77
2022/05/03 06:00:03;;;;;;;;;;;7.80;99.90;;;;;;5040422;28;20375;-76
2022/05/03 06:02:37;;;;;;;;;;;8.00;99.90;;;;;;5044231;28;19921;-77
2022/05/03 06:05:03;;;;;;;;;;;8.10;99.90;;;;;;5043826;28;19928;-76
2022/05/03 06:07:30;;;;;;;;;;;8.20;99.90;;;;;;5045194;28;20413;-76
2022/05/03 06:09:56;;;;;;;;;;;8.30;99.90;;;;;;5042356;28;19925;-76
2022/05/03 06:12:21;;;;;;;;;;;8.50;99.90;;;;;;5044970;28;19924;-77
2022/05/03 06:14:47;;;;;;;;;;;8.60;99.90;;;;;;5043635;28;19920;-77
2022/05/03 06:17:12;;;;;;;;;;;8.70;99.90;;;;;;5043808;28;19928;-76
2022/05/03 06:19:38;;;;;;;;;;;8.80;99.90;;;;;;5041769;28;21302;-78
2022/05/03 06:22:04;;;;;;;;;;;8.90;99.90;;;;;;5041833;28;19928;-77
2022/05/03 06:24:31;;;;;;;;;;;9.00;99.90;;;;;;5044177;28;19960;-77
2022/05/03 06:26:58;;;;;;;;;;;9.10;99.90;;;;;;5043843;28;19925;-77
2022/05/03 06:29:24;;;;;;;;;;;9.20;99.90;;;;;;5043440;28;20631;-78
2022/05/03 06:31:50;;;;;;;;;;;9.30;99.90;;;;;;5037475;28;19933;-76
2022/05/03 06:34:16;;;;;;;;;;;9.40;99.90;;;;;;5029453;28;19925;-76
2022/05/03 06:36:42;;;;;;;;;;;9.50;99.90;;;;;;5036885;28;19924;-76
2022/05/03 06:39:07;;;;;;;;;;;9.70;99.90;;;;;;5024278;28;19929;-76
2022/05/03 06:41:34;;;;;;;;;;;9.80;99.90;;;;;;5033776;28;20287;-77
2022/05/03 06:44:00;;;;;;;;;;;9.90;99.90;;;;;;5037374;28;19928;-77
2022/05/03 06:46:26;;;;;;;;;;;9.90;99.90;;;;;;5040237;28;19924;-76
2022/05/03 06:48:51;;;;;;;;;;;10.00;99.90;;;;;;5042829;28;20010;-77
2022/05/03 06:51:17;;;;;;;;;;;10.10;99.90;;;;;;5039522;28;19951;-75
2022/05/03 06:53:43;;;;;;;;;;;10.20;99.90;;;;;;5023822;28;20012;-75
2022/05/03 06:56:08;;;;;;;;;;;10.20;99.90;;;;;;5040142;28;19931;-76
2022/05/03 06:58:35;;;;;;;;;;;10.30;99.90;;;;;;5041848;28;19929;-77
2022/05/03 07:01:05;;;;;;;;;;;10.40;99.90;;;;;;5024584;28;19939;-77
2022/05/03 07:03:31;;;;;;;;;;;10.40;99.90;;;;;;5044784;28;19924;-76
2022/05/03 07:05:56;;;;;;;;;;;10.50;99.90;;;;;;5046518;28;20294;-77
2022/05/03 07:08:22;;;;;;;;;;;10.50;99.90;;;;;;5042518;28;20051;-77
2022/05/03 07:10:48;;;;;;;;;;;10.60;99.90;;;;;;5060296;28;19925;-76
2022/05/03 07:13:14;;;;;;;;;;;10.60;99.90;;;;;;5046190;28;19924;-76
2022/05/03 07:15:42;;;;;;;;;;;10.60;99.90;;;;;;5044638;28;19931;-76
2022/05/03 07:23:40;;;;;;;;;;;10.60;99.90;;;;;;5024993;28;20219;-76
2022/05/03 07:26:06;;;;;;;;;;;10.60;99.90;;;;;;5037553;28;19921;-76
2022/05/03 07:28:31;;;;;;;;;;;10.60;99.90;;;;;;5039681;28;19932;-76
2022/05/03 07:30:58;;;;;;;;;;;10.50;99.90;;;;;;5041011;28;19978;-78
2022/05/03 07:33:24;;;;;;;;;;;10.60;99.90;;;;;;5025690;28;19929;-76
2022/05/03 07:35:49;;;;;;;;;;;10.50;99.90;;;;;;5042235;28;19931;-77
2022/05/03 07:38:15;;;;;;;;;;;10.50;99.90;;;;;;5021773;28;19921;-79
2022/05/03 07:40:41;;;;;;;;;;;10.50;99.90;;;;;;5033664;28;19929;-78
2022/05/03 07:43:06;;;;;;;;;;;10.50;99.90;;;;;;5038224;28;20280;-81
2022/05/03 07:45:32;;;;;;;;;;;10.50;99.90;;;;;;5039009;28;19921;-80
2022/05/03 07:47:59;;;;;;;;;;;10.50;99.90;;;;;;5041114;28;19920;-77
2022/05/03 07:50:24;;;;;;;;;;;10.50;99.90;;;;;;5040957;28;19928;-77
2022/05/03 07:52:50;;;;;;;;;;;10.50;99.90;;;;;;5019497;28;19928;-81
2022/05/03 07:55:16;;;;;;;;;;;10.50;99.90;;;;;;5037152;28;19924;-79
2022/05/03 07:57:41;;;;;;;;;;;10.50;99.90;;;;;;5038647;28;19932;-76
2022/05/03 08:00:08;;;;;;;;;;;10.60;99.90;;;;;;5039156;28;19929;-77
2022/05/03 08:02:34;;;;;;;;;;;10.60;99.90;;;;;;5043544;28;19925;-78
2022/05/03 08:05:00;;;;;;;;;;;10.60;99.90;;;;;;5041258;28;19932;-77
2022/05/03 08:07:26;;;;;;;;;;;10.70;99.90;;;;;;5022669;28;19928;-77
2022/05/03 08:09:53;;;;;;;;;;;10.70;99.90;;;;;;5035765;28;19931;-77
2022/05/03 08:12:19;;;;;;;;;;;10.80;99.90;;;;;;5018872;28;20979;-86
2022/05/03 08:14:46;;;;;;;;;;;10.80;99.90;;;;;;5039034;28;20298;-77
2022/05/03 08:17:11;;;;;;;;;;;10.90;99.90;;;;;;5053932;28;20434;-77
2022/05/03 08:19:37;;;;;;;;;;;10.90;99.90;;;;;;5040788;28;20050;-78
2022/05/03 08:22:04;;;;;;;;;;;10.90;99.90;;;;;;5036860;28;20022;-76
2022/05/03 08:24:30;;;;;;;;;;;10.90;99.90;;;;;;5045580;28;20345;-77
2022/05/03 08:26:55;;;;;;;;;;;10.90;99.90;;;;;;5041874;28;19975;-77
2022/05/03 08:29:21;;;;;;;;;;;10.90;99.90;;;;;;5039945;28;20302;-77
2022/05/03 08:31:47;;;;;;;;;;;10.90;99.90;;;;;;5041342;28;19929;-83
2022/05/03 08:34:13;;;;;;;;;;;11.00;99.90;;;;;;5039276;28;20549;-79
2022/05/03 08:36:39;;;;;;;;;;;11.10;99.90;;;;;;5040659;28;19929;-76
2022/05/03 08:42:02;;;;;;;;;;;11.30;99.90;;;;;;5034700;28;20302;-77
2022/05/03 08:44:28;;;;;;;;;;;11.30;99.90;;;;;;5059231;28;19989;-78
2022/05/03 08:46:55;;;;;;;;;;;11.40;99.90;;;;;;5042264;28;20374;-77
2022/05/03 08:49:22;;;;;;;;;;;11.30;99.90;;;;;;5037570;28;20015;-80
2022/05/03 08:51:49;;;;;;;;;;;11.30;99.90;;;;;;5022589;28;20377;-80
2022/05/03 08:54:16;;;;;;;;;;;11.30;99.90;;;;;;5038875;28;19928;-76
2022/05/03 08:56:41;;;;;;;;;;;11.40;99.90;;;;;;5038415;28;20276;-77
2022/05/03 08:59:07;;;;;;;;;;;11.40;99.90;;;;;;5037096;28;20059;-77
2022/05/03 09:01:33;;;;;;;;;;;11.50;99.90;;;;;;5013488;28;19927;-76
2022/05/03 09:03:58;;;;;;;;;;;11.60;99.90;;;;;;5025438;28;19928;-77
2022/05/03 09:06:39;;;;;;;;;;;11.70;99.90;;;;;;5042048;28;19927;-79
2022/05/03 09:09:08;;;;;;;;;;;11.80;99.90;;;;;;5015901;28;19925;-76
2022/05/03 09:11:41;;;;;;;;;;;11.80;99.90;;;;;;5039694;28;19946;-81
2022/05/03 09:14:09;;;;;;;;;;;11.80;99.90;;;;;;5020890;28;20279;-76
2022/05/03 09:16:46;;;;;;;;;;;11.80;99.90;;;;;;5036592;28;19929;-79
2022/05/03 09:19:21;;;;;;;;;;;11.70;99.90;;;;;;5034673;28;19924;-80
2022/05/03 09:24:49;;;;;;;;;;;11.70;99.90;;;;;;5039016;28;20445;-76
2022/05/03 09:27:20;;;;;;;;;;;11.70;99.90;;;;;;5033979;28;19925;-78
2022/05/03 09:29:58;;;;;;;;;;;11.80;99.90;;;;;;5037947;28;20010;-84
2022/05/03 09:32:32;;;;;;;;;;;11.80;99.90;;;;;;5052462;28;19943;-82
2022/05/03 09:34:58;;;;;;;;;;;11.90;99.90;;;;;;5038345;28;19920;-77
2022/05/03 09:37:36;;;;;;;;;;;11.90;99.90;;;;;;5036859;28;20440;-76
2022/05/03 09:40:02;;;;;;;;;;;12.00;99.90;;;;;;5036138;28;19928;-77
2022/05/03 09:42:29;;;;;;;;;;;12.00;99.90;;;;;;5017119;28;19929;-78
2022/05/03 09:44:57;;;;;;;;;;;11.90;99.90;;;;;;5033238;28;20395;-79
2022/05/03 09:47:23;;;;;;;;;;;11.90;99.90;;;;;;5038380;28;19960;-75
2022/05/03 09:49:49;;;;;;;;;;;11.80;99.90;;;;;;5039664;28;19928;-80
2022/05/03 09:52:24;;;;;;;;;;;11.80;99.90;;;;;;5022843;28;19933;-84
2022/05/03 09:54:50;;;;;;;;;;;11.80;99.90;;;;;;5036545;28;19924;-80
2022/05/03 09:57:19;;;;;;;;;;;11.80;99.90;;;;;;5040349;28;19956;-78
2022/05/03 09:59:46;;;;;;;;;;;11.80;99.90;;;;;;5037375;28;19927;-80
2022/05/03 10:02:12;;;;;;;;;;;11.80;99.90;;;;;;5040695;28;19999;-80
2022/05/03 10:04:38;;;;;;;;;;;11.80;99.90;;;;;;5035865;28;19927;-77
2022/05/03 10:07:04;;;;;;;;;;;11.80;99.90;;;;;;5037943;28;19928;-80
2022/05/03 10:09:30;;;;;;;;;;;11.80;99.90;;;;;;5029489;28;20043;-81
2022/05/03 10:11:56;;;;;;;;;;;11.80;99.90;;;;;;5039112;28;20058;-81
2022/05/03 10:14:21;;;;;;;;;;;11.90;99.90;;;;;;5034577;28;20434;-76
2022/05/03 10:22:17;;;;;;;;;;;12.20;99.90;;;;;;5037376;28;19971;-77
2022/05/03 10:24:51;;;;;;;;;;;12.40;99.90;;;;;;5043574;28;19920;-76
2022/05/03 10:27:21;;;;;;;;;;;12.50;99.90;;;;;;5036582;28;19929;-78
2022/05/03 10:30:02;;;;;;;;;;;12.60;99.90;;;;;;5042835;28;20414;-79
2022/05/03 10:32:29;;;;;;;;;;;12.70;99.90;;;;;;5039286;28;19978;-77
2022/05/03 10:34:59;;;;;;;;;;;12.80;99.90;;;;;;5045843;28;19983;-77
2022/05/03 10:37:43;;;;;;;;;;;12.90;99.90;;;;;;5047228;28;20029;-78
2022/05/03 10:40:12;;;;;;;;;;;12.90;99.90;;;;;;5033029;28;19921;-78
2022/05/03 10:42:37;;;;;;;;;;;13.00;99.90;;;;;;5046865;28;19967;-77
2022/05/03 10:45:06;;;;;;;;;;;13.00;99.90;;;;;;5037284;28;20426;-81
2022/05/03 10:47:49;;;;;;;;;;;13.00;99.90;;;;;;5049342;28;20332;-78
2022/05/03 10:50:36;;;;;;;;;;;13.10;99.90;;;;;;5053329;28;19932;-77
2022/05/03 10:53:20;;;;;;;;;;;13.10;99.90;;;;;;5042248;28;19932;-76
2022/05/03 10:56:01;;;;;;;;;;;13.20;99.90;;;;;;5038022;28;19921;-77
2022/05/03 10:58:27;;;;;;;;;;;13.20;99.90;;;;;;5037428;28;20333;-81
2022/05/03 11:01:03;;;;;;;;;;;13.20;99.90;;;;;;5039269;28;19928;-79
2022/05/03 11:03:31;;;;;;;;;;;13.30;99.90;;;;;;5031234;28;20441;-79
2022/05/03 11:06:15;;;;;;;;;;;13.30;99.90;;;;;;5039946;28;19971;-80
2022/05/03 11:08:55;;;;;;;;;;;13.30;99.90;;;;;;5038813;28;20042;-78
2022/05/03 11:11:42;;;;;;;;;;;13.40;99.90;;;;;;5043674;28;21598;-78
2022/05/03 11:14:32;;;;;;;;;;;13.50;99.90;;;;;;5040294;28;19933;-76
2022/05/03 11:17:04;;;;;;;;;;;13.60;99.90;;;;;;5039180;28;19921;-77
2022/05/03 11:19:32;;;;;;;;;;;13.50;99.90;;;;;;5039160;28;19964;-80
2022/05/03 11:21:58;;;;;;;;;;;13.60;99.90;;;;;;5038478;28;19932;-76
2022/05/03 11:24:25;;;;;;;;;;;13.50;99.90;;;;;;5022721;28;19959;-81
2022/05/03 11:26:51;;;;;;;;;;;13.50;99.90;;;;;;5026567;28;19982;-77
2022/05/03 11:29:17;;;;;;;;;;;13.50;99.90;;;;;;5062735;28;19920;-75
2022/05/03 11:31:45;;;;;;;;;;;13.70;99.90;;;;;;5046993;28;19931;-79
2022/05/03 11:34:10;;;;;;;;;;;13.80;99.90;;;;;;5044088;28;19925;-81
2022/05/03 11:36:38;;;;;;;;;;;13.80;99.90;;;;;;5040980;28;19936;-76
2022/05/03 11:39:03;;;;;;;;;;;13.90;99.90;;;;;;5042831;28;20018;-77
2022/05/03 11:41:29;;;;;;;;;;;13.90;99.90;;;;;;5060208;28;20392;-77
2022/05/03 11:43:55;;;;;;;;;;;14.00;99.90;;;;;;5039451;28;19952;-82
2022/05/03 11:46:22;;;;;;;;;;;14.00;99.90;;;;;;5038392;28;19931;-79
2022/05/03 11:48:50;;;;;;;;;;;14.10;99.90;;;;;;5021580;28;19957;-78
2022/05/03 11:56:46;;;;;;;;;;;14.40;99.90;;;;;;5042586;28;19986;-77
2022/05/03 11:59:12;;;;;;;;;;;14.30;99.90;;;;;;5046638;28;19983;-78
2022/05/03 12:01:37;;;;;;;;;;;14.30;99.90;;;;;;5045026;28;19920;-82
2022/05/03 12:04:04;;;;;;;;;;;14.30;99.90;;;;;;5042116;28;19928;-81
2022/05/03 12:06:34;;;;;;;;;;;14.30;99.90;;;;;;5038018;28;20017;-78
2022/05/03 12:08:59;;;;;;;;;;;14.20;99.90;;;;;;5040209;28;19921;-82
2022/05/03 12:11:26;;;;;;;;;;;14.20;99.90;;;;;;5041563;28;19935;-76
2022/05/03 12:13:52;;;;;;;;;;;14.30;99.90;;;;;;5011686;28;19982;-81
2022/05/03 12:16:22;;;;;;;;;;;14.40;99.90;;;;;;5039436;28;19928;-83
2022/05/03 12:18:48;;;;;;;;;;;14.50;99.90;;;;;;5022495;28;19920;-78
2022/05/03 12:21:15;;;;;;;;;;;14.50;99.90;;;;;;5022858;28;20022;-82
2022/05/03 12:23:45;;;;;;;;;;;14.60;99.90;;;;;;5040139;28;19925;-78
2022/05/03 12:26:25;;;;;;;;;;;14.70;99.90;;;;;;5055951;28;19928;-82
2022/05/03 12:28:54;;;;;;;;;;;14.80;99.90;;;;;;5042858;28;19921;-78
2022/05/03 12:31:20;;;;;;;;;;;15.00;99.90;;;;;;5036789;28;19939;-83
2022/05/03 12:33:48;;;;;;;;;;;15.00;99.90;;;;;;5040164;28;19928;-77
2022/05/03 12:36:26;;;;;;;;;;;15.10;99.90;;;;;;5043159;28;19924;-78
2022/05/03 12:38:51;;;;;;;;;;;15.30;99.90;;;;;;5041276;28;19921;-78
2022/05/03 12:41:24;;;;;;;;;;;15.70;99.90;;;;;;5045718;28;19989;-76
2022/05/03 12:44:02;;;;;;;;;;;15.90;98.20;;;;;;5038519;28;19928;-78
2022/05/03 12:46:28;;;;;;;;;;;16.20;96.70;;;;;;5026275;28;19932;-82
2022/05/03 12:48:54;;;;;;;;;;;16.40;97.90;;;;;;5021478;28;19924;-78
2022/05/03 12:51:20;;;;;;;;;;;16.70;98.30;;;;;;5040537;28;20040;-77
2022/05/03 12:53:46;;;;;;;;;;;16.80;96.90;;;;;;5040468;28;20015;-78
2022/05/03 12:58:58;;;;;;;;;;;16.80;97.20;;;;;;5036133;28;19932;-81
2022/05/03 13:01:25;;;;;;;;;;;16.90;96.70;;;;;;5041075;28;19921;-78
2022/05/03 13:03:50;;;;;;;;;;;16.80;97.50;;;;;;5039804;28;19939;-79
2022/05/03 13:06:17;;;;;;;;;;;16.70;97.60;;;;;;5038854;28;19921;-78
2022/05/03 13:08:43;;;;;;;;;;;16.70;98.00;;;;;;5039940;28;19921;-77
2022/05/03 13:11:08;;;;;;;;;;;16.60;97.90;;;;;;5036941;28;19971;-78
2022/05/03 13:13:35;;;;;;;;;;;16.80;97.80;;;;;;5031242;28;20353;-78
2022/05/03 13:16:02;;;;;;;;;;;17.50;97.30;;;;;;5058916;28;19951;-78
2022/05/03 13:18:28;;;;;;;;;;;18.30;96.70;;;;;;5036015;28;20047;-81
2022/05/03 13:20:54;;;;;;;;;;;18.90;95.60;;;;;;5036979;28;19932;-80
2022/05/03 13:23:20;;;;;;;;;;;19.50;95.00;;;;;;5024394;28;19936;-84
2022/05/03 13:25:45;;;;;;;;;;;19.60;93.60;;;;;;5026151;28;19927;-77
2022/05/03 13:28:11;;;;;;;;;;;19.40;93.90;;;;;;5040636;28;19935;-81
2022/05/03 13:30:37;;;;;;;;;;;18.90;94.00;;;;;;5042697;28;20382;-78
2022/05/03 13:33:03;;;;;;;;;;;18.60;93.80;;;;;;5038628;28;19932;-80
2022/05/03 13:40:59;;;;;;;;;;;17.80;94.00;;;;;;5025548;28;19931;-81
2022/05/03 13:43:25;;;;;;;;;;;17.50;93.80;;;;;;5028162;28;19925;-79
2022/05/03 13:45:51;;;;;;;;;;;17.30;94.10;;;;;;5041512;28;20227;-80
2022/05/03 13:48:18;;;;;;;;;;;17.20;93.90;;;;;;5023973;28;21374;-82
2022/05/03 13:50:46;;;;;;;;;;;17.10;94.00;;;;;;5037725;28;19925;-82
2022/05/03 13:53:13;;;;;;;;;;;17.10;94.10;;;;;;5045335;28;20008;-81
2022/05/03 13:55:39;;;;;;;;;;;17.20;93.90;;;;;;5041372;28;20294;-83
2022/05/03 13:58:05;;;;;;;;;;;17.10;94.00;;;;;;5043970;28;20025;-80
2022/05/03 14:00:32;;;;;;;;;;;17.10;94.00;;;;;;5045329;28;20357;-79
2022/05/03 14:02:57;;;;;;;;;;;17.00;93.80;;;;;;5041316;28;19925;-78
2022/05/03 14:05:23;;;;;;;;;;;16.90;93.90;;;;;;5045072;28;20393;-82
2022/05/03 14:07:51;;;;;;;;;;;16.90;94.00;;;;;;5040809;28;19998;-81
2022/05/03 14:10:16;;;;;;;;;;;16.90;94.00;;;;;;5042731;28;19935;-78
2022/05/03 14:12:42;;;;;;;;;;;16.90;93.80;;;;;;5010175;28;19921;-78
2022/05/03 14:15:08;;;;;;;;;;;17.00;93.70;;;;;;5040326;28;19932;-78
2022/05/03 14:17:33;;;;;;;;;;;17.00;93.70;;;;;;5007945;28;19931;-79
2022/05/03 14:19:59;;;;;;;;;;;17.10;93.40;;;;;;5039128;28;19924;-81
2022/05/03 14:22:25;;;;;;;;;;;17.10;93.10;;;;;;5041794;28;19925;-77
2022/05/03 14:24:53;;;;;;;;;;;17.00;93.20;;;;;;5027674;28;20422;-78
2022/05/03 14:27:18;;;;;;;;;;;17.00;93.40;;;;;;5040520;28;19975;-81
2022/05/03 14:29:44;;;;;;;;;;;17.00;93.10;;;;;;5044187;28;19932;-82
2022/05/03 14:32:09;;;;;;;;;;;17.00;93.10;;;;;;5038122;28;20011;-82
2022/05/03 14:34:35;;;;;;;;;;;17.00;93.10;;;;;;5044823;28;20341;-80
2022/05/03 14:37:01;;;;;;;;;;;17.10;92.80;;;;;;5026105;28;19929;-81
2022/05/03 14:39:26;;;;;;;;;;;17.00;93.00;;;;;;5065788;22;19923;-84
2022/05/03 14:41:53;;;;;;;;;;;16.80;93.10;;;;;;5046562;28;20361;-84
2022/05/03 14:44:19;;;;;;;;;;;16.60;93.20;;;;;;5066899;28;19928;-84
2022/05/03 14:46:45;;;;;;;;;;;16.50;93.30;;;;;;5035550;28;19989;-83
2022/05/03 14:49:10;;;;;;;;;;;16.40;93.50;;;;;;5064431;28;19920;-85
2022/05/03 14:51:37;;;;;;;;;;;16.10;93.90;;;;;;5046870;28;19928;-83
2022/05/03 14:54:03;;;;;;;;;;;15.80;93.10;;;;;;5066945;28;19928;-83
2022/05/03 15:04:43;;;;;;;;;;;15.40;93.10;;;;;;5082599;28;20073;-82
2022/05/03 15:07:09;;;;;;;;;;;15.40;93.50;;;;;;5070619;28;20019;-82
2022/05/03 15:09:35;;;;;;;;;;;15.30;93.60;;;;;;5046187;28;19927;-83
2022/05/03 15:12:01;;;;;;;;;;;15.50;93.90;;;;;;5069411;28;19920;-83
2022/05/03 15:14:28;;;;;;;;;;;15.30;94.00;;;;;;5064408;28;19982;-84